Time;durP1;ratioP1;P1;durP2;ratioP2;P2;SDS_P1;SDS_P2;PMS_P1;PMS_P2;Temp;Humidity;BMP_temperature;BMP_pressure;BME280_temperature;BME280_humidity;BME280_pressure;Samples;Min_cycle;Max_cycle;Signal;HPM_P1;HPM_P2
2022/09/11 00:00:42;;;;;;;3.97;1.45;;;;;;;;;;5053095;28;20021;-62
2022/09/11 00:03:08;;;;;;;4.25;1.80;;;;;;;;;;5052651;28;20473;-61
2022/09/11 00:05:38;;;;;;;3.97;1.60;;;;;;;;;;5053371;28;20170;-61
2022/09/11 00:08:05;;;;;;;6.25;1.85;;;;;;;;;;5052986;28;20086;-60
2022/09/11 00:10:33;;;;;;;5.43;1.70;;;;;;;;;;5052901;28;20029;-60
2022/09/11 00:12:59;;;;;;;5.43;1.63;;;;;;;;;;5052619;28;20102;-61
2022/09/11 00:15:25;;;;;;;3.95;1.70;;;;;;;;;;5052868;28;20029;-60
2022/09/11 00:17:51;;;;;;;2.97;1.40;;;;;;;;;;5052342;28;20044;-60
2022/09/11 00:20:17;;;;;;;3.25;1.50;;;;;;;;;;5052480;28;20428;-60
2022/09/11 00:22:43;;;;;;;3.58;1.48;;;;;;;;;;5052737;28;20029;-61
2022/09/11 00:25:09;;;;;;;6.07;1.70;;;;;;;;;;5052537;28;20103;-61
2022/09/11 00:27:35;;;;;;;3.97;1.65;;;18.10;99.90;;;;;;5052676;28;20021;-61
2022/09/11 00:30:01;;;;;;;5.22;1.58;;;18.10;99.90;;;;;;5052800;28;20452;-60
2022/09/11 00:32:27;;;;;;;4.60;1.35;;;18.10;99.90;;;;;;5052176;28;20025;-60
2022/09/11 00:34:53;;;;;;;4.55;1.73;;;18.00;99.90;;;;;;5052364;28;20024;-61
2022/09/11 00:37:18;;;;;;;3.55;1.50;;;17.90;99.90;;;;;;5052320;28;20051;-61
2022/09/11 00:39:45;;;;;;;3.50;1.60;;;;;;;;;;5052131;28;20040;-60
2022/09/11 00:42:11;;;;;;;5.60;1.70;;;;;;;;;;5052359;28;20025;-60
2022/09/11 00:44:39;;;;;;;3.42;1.48;;;;;;;;;;5052232;28;20040;-60
2022/09/11 00:47:08;;;;;;;4.43;1.70;;;17.80;99.90;;;;;;5052312;28;20045;-60
2022/09/11 00:49:50;;;;;;;4.82;1.65;;;17.70;99.90;;;;;;5052140;28;20112;-60
2022/09/11 00:52:29;;;;;;;5.93;2.05;;;17.40;99.90;;;;;;5052255;28;20029;-60
2022/09/11 00:55:06;;;;;;;4.18;1.80;;;17.40;99.90;;;;;;5052190;28;20027;-60
2022/09/11 00:57:38;;;;;;;3.40;1.67;;;17.20;99.90;;;;;;5052102;28;20374;-60
2022/09/11 01:00:05;;;;;;;5.68;1.75;;;17.10;99.90;;;;;;5051573;28;20037;-60
2022/09/11 01:02:34;;;;;;;5.47;2.03;;;17.00;99.90;;;;;;5052040;28;20033;-60
2022/09/11 01:05:01;;;;;;;3.53;1.60;;;16.80;99.90;;;;;;5052384;28;20500;-60
2022/09/11 01:07:29;;;;;;;4.35;1.67;;;16.90;99.90;;;;;;5052052;28;20029;-60
2022/09/11 01:09:55;;;;;;;4.47;1.65;;;16.70;99.90;;;;;;5052016;28;20029;-60
2022/09/11 01:12:45;;;;;;;5.80;1.80;;;16.70;99.90;;;;;;5051798;28;20025;-60
2022/09/11 01:15:14;;;;;;;3.53;1.38;;;17.00;99.90;;;;;;5051468;28;20048;-61
2022/09/11 01:18:27;;;;;;;5.25;1.60;;;17.40;99.90;;;;;;5051845;28;20082;-61
2022/09/11 01:21:16;;;;;;;2.47;1.50;;;;;;;;;;5029178;28;20592;-61
2022/09/11 01:23:54;;;;;;;4.13;1.80;;;;;;;;;;4990223;28;20050;-61
2022/09/11 01:26:48;;;;;;;4.47;1.67;;;;;;;;;;4990272;28;20395;-60
2022/09/11 01:29:17;;;;;;;5.18;1.80;;;;;;;;;;4989792;28;20497;-60
2022/09/11 01:32:07;;;;;;;3.58;1.80;;;16.60;99.90;;;;;;4993286;28;20062;-60
2022/09/11 01:34:36;;;;;;;3.97;1.75;;;;;;;;;;4994541;28;20045;-60
2022/09/11 01:37:04;;;;;;;5.20;1.67;;;;;;;;;;4994500;28;20466;-60
2022/09/11 01:39:33;;;;;;;4.65;1.90;;;;;;;;;;4994009;28;20562;-60
2022/09/11 01:42:02;;;;;;;5.38;2.00;;;;;;;;;;4994269;28;20090;-60
2022/09/11 01:44:35;;;;;;;4.32;1.73;;;;;;;;;;4993742;28;20034;-60
2022/09/11 01:47:02;;;;;;;5.05;1.83;;;;;;;;;;4994010;28;20034;-59
2022/09/11 01:49:32;;;;;;;4.03;1.60;;;;;;;;;;4993958;28;20117;-60
2022/09/11 01:52:04;;;;;;;6.13;2.10;;;;;;;;;;4993950;28;20506;-60
2022/09/11 01:54:32;;;;;;;5.32;1.77;;;;;;;;;;4988963;28;20042;-60
2022/09/11 01:57:04;;;;;;;3.80;1.60;;;16.70;99.90;;;;;;4993955;28;20034;-60
2022/09/11 01:59:42;;;;;;;4.30;2.00;;;16.60;99.90;;;;;;4993972;28;20121;-60
2022/09/11 02:02:12;;;;;;;5.05;1.85;;;16.80;99.90;;;;;;5055182;28;20512;-60
2022/09/11 02:04:44;;;;;;;4.07;2.00;;;;;;;;;;5055338;28;20107;-60
2022/09/11 02:07:14;;;;;;;4.88;1.77;;;;;;;;;;5055428;28;20029;-61
2022/09/11 02:09:47;;;;;;;4.07;1.55;;;;;;;;;;5055533;28;20021;-60
2022/09/11 02:12:14;;;;;;;7.13;1.90;;;;;;;;;;5054911;28;20040;-60
2022/09/11 02:14:47;;;;;;;3.83;1.80;;;16.30;99.90;;;;;;5055103;28;20035;-60
2022/09/11 02:17:35;;;;;;;4.80;1.83;;;16.10;99.90;;;;;;5055027;28;20029;-60
2022/09/11 02:20:01;;;;;;;4.97;1.88;;;16.20;99.90;;;;;;5055112;28;20067;-60
2022/09/11 02:22:28;;;;;;;4.13;2.00;;;16.10;99.90;;;;;;5054788;28;20616;-61
2022/09/11 02:24:54;;;;;;;4.13;1.70;;;16.20;99.90;;;;;;5054773;28;20560;-60
2022/09/11 02:27:26;;;;;;;4.43;1.83;;;16.00;99.90;;;;;;5054795;28;20055;-60
2022/09/11 02:29:54;;;;;;;4.20;1.73;;;16.20;99.90;;;;;;5054862;28;20432;-60
2022/09/11 02:32:21;;;;;;;3.15;1.98;;;16.00;99.90;;;;;;5053551;28;20025;-60
2022/09/11 02:34:47;;;;;;;6.63;2.25;;;16.00;99.90;;;;;;5055170;28;20052;-60
2022/09/11 02:37:44;;;;;;;5.32;1.98;;;16.00;99.90;;;;;;5054601;28;20060;-60
2022/09/11 02:40:36;;;;;;;5.20;1.85;;;16.00;99.90;;;;;;5054407;28;20112;-60
2022/09/11 02:43:26;;;;;;;3.90;2.08;;;16.10;99.90;;;;;;5054257;28;20028;-60
2022/09/11 02:46:11;;;;;;;4.18;1.95;;;16.00;99.90;;;;;;5054501;28;20025;-60
2022/09/11 02:49:09;;;;;;;5.03;2.28;;;15.80;99.90;;;;;;5054448;28;20021;-60
2022/09/11 02:51:41;;;;;;;4.85;1.95;;;15.70;99.90;;;;;;5054736;28;20078;-60
2022/09/11 02:54:42;;;;;;;8.05;1.70;;;15.80;99.90;;;;;;5054769;28;20455;-60
2022/09/11 02:57:27;;;;;;;3.95;1.80;;;16.40;99.90;;;;;;5053788;28;20116;-60
2022/09/11 02:59:59;;;;;;;5.50;1.75;;;16.30;99.90;;;;;;5054119;28;20037;-60
2022/09/11 03:02:27;;;;;;;5.00;2.08;;;16.00;99.90;;;;;;5054284;28;20021;-60
2022/09/11 03:04:53;;;;;;;3.63;2.10;;;15.70;99.90;;;;;;5054195;28;20052;-60
2022/09/11 03:07:19;;;;;;;4.72;2.00;;;15.60;99.90;;;;;;5052837;28;20064;-60
2022/09/11 03:09:44;;;;;;;5.75;2.20;;;15.50;99.90;;;;;;5053949;28;20029;-60
2022/09/11 03:12:10;;;;;;;5.80;2.10;;;15.40;99.90;;;;;;5052787;28;20021;-60
2022/09/11 03:14:37;;;;;;;4.28;2.00;;;15.50;99.90;;;;;;5054168;28;20036;-60
2022/09/11 03:17:03;;;;;;;5.07;2.10;;;15.40;99.90;;;;;;5053919;28;20036;-60
2022/09/11 03:19:29;;;;;;;2.85;1.70;;;15.40;99.90;;;;;;5054154;28;20067;-60
2022/09/11 03:21:55;;;;;;;4.00;1.75;;;15.60;99.90;;;;;;5053722;28;20128;-60
2022/09/11 03:24:21;;;;;;;3.92;1.77;;;15.60;99.90;;;;;;5053805;28;20175;-60
2022/09/11 03:26:47;;;;;;;4.95;1.73;;;15.80;99.90;;;;;;5053605;28;20095;-60
2022/09/11 03:29:13;;;;;;;4.63;1.75;;;15.70;99.90;;;;;;5053621;28;20060;-60
2022/09/11 03:31:39;;;;;;;4.50;1.88;;;15.50;99.90;;;;;;5053717;28;20029;-60
2022/09/11 03:34:05;;;;;;;4.22;1.70;;;15.30;99.90;;;;;;5053823;28;20489;-60
2022/09/11 03:36:33;;;;;;;3.70;1.60;;;15.20;99.90;;;;;;5053933;28;20393;-60
2022/09/11 03:38:59;;;;;;;4.13;1.55;;;15.40;99.90;;;;;;5053277;28;20029;-60
2022/09/11 03:41:25;;;;;;;2.90;1.48;;;15.40;99.90;;;;;;5053420;28;20112;-60
2022/09/11 03:43:51;;;;;;;7.72;2.13;;;15.60;99.90;;;;;;5053481;28;20123;-60
2022/09/11 03:46:17;;;;;;;4.50;1.50;;;15.90;99.90;;;;;;5053462;28;20104;-61
2022/09/11 03:48:46;;;;;;;5.25;1.30;;;15.70;99.90;;;;;;5053367;28;20493;-61
2022/09/11 03:51:16;;;;;;;4.97;1.85;;;15.80;99.90;;;;;;5053651;28;20553;-61
2022/09/11 03:53:43;;;;;;;5.47;1.73;;;15.70;99.90;;;;;;5052582;28;20489;-60
2022/09/11 03:56:09;;;;;;;3.50;1.50;;;15.50;99.90;;;;;;5052862;28;20021;-61
2022/09/11 03:58:35;;;;;;;4.50;1.60;;;15.70;99.90;;;;;;5052988;28;20036;-61
2022/09/11 04:01:11;;;;;;;5.18;1.85;;;16.20;99.90;;;;;;5052997;28;20033;-61
2022/09/11 04:03:38;;;;;;;4.55;1.50;;;16.10;99.90;;;;;;5051781;28;20477;-61
2022/09/11 04:06:03;;;;;;;4.03;1.42;;;16.50;99.90;;;;;;5053102;28;20501;-61
2022/09/11 04:08:32;;;;;;;3.97;1.40;;;16.60;99.90;;;;;;5052872;28;20021;-61
2022/09/11 04:11:10;;;;;;;5.38;1.60;;;16.60;99.90;;;;;;5052801;28;20060;-61
2022/09/11 04:13:37;;;;;;;3.80;1.60;;;16.00;99.90;;;;;;5052716;28;20497;-61
2022/09/11 04:16:10;;;;;;;2.20;1.38;;;15.70;99.90;;;;;;5052903;28;20024;-61
2022/09/11 04:18:37;;;;;;;3.03;1.35;;;15.40;99.90;;;;;;5052679;28;20036;-61
2022/09/11 04:21:04;;;;;;;3.25;1.60;;;15.40;99.90;;;;;;5052835;28;20033;-61
2022/09/11 04:23:30;;;;;;;5.68;1.40;;;15.80;99.90;;;;;;5052177;28;20029;-61
2022/09/11 04:25:57;;;;;;;3.63;1.40;;;15.40;99.90;;;;;;5052656;28;20029;-61
2022/09/11 04:28:22;;;;;;;5.18;1.50;;;15.30;99.90;;;;;;5052589;28;20033;-61
2022/09/11 04:30:49;;;;;;;4.07;1.75;;;15.20;99.90;;;;;;5052881;28;20025;-61
2022/09/11 04:33:14;;;;;;;4.57;1.55;;;15.40;99.90;;;;;;5051230;28;20363;-61
2022/09/11 04:35:40;;;;;;;3.28;1.55;;;15.40;99.90;;;;;;5052521;28;20087;-61
2022/09/11 04:38:07;;;;;;;3.35;1.42;;;16.10;99.90;;;;;;5052210;28;20485;-61
2022/09/11 04:40:33;;;;;;;3.42;1.42;;;16.20;99.90;;;;;;5051940;28;20065;-61
2022/09/11 04:43:00;;;;;;;5.25;1.40;;;15.90;99.90;;;;;;5051465;28;20478;-61
2022/09/11 04:45:27;;;;;;;4.95;1.40;;;16.10;99.90;;;;;;5052474;28;20091;-61
2022/09/11 04:47:52;;;;;;;4.82;1.75;;;16.20;99.90;;;;;;5052278;28;20079;-61
2022/09/11 04:50:19;;;;;;;4.15;1.40;;;16.10;99.90;;;;;;5052195;28;20021;-61
2022/09/11 04:52:45;;;;;;;3.45;1.50;;;16.00;99.90;;;;;;5051809;28;20021;-61
2022/09/11 04:55:10;;;;;;;3.33;1.40;;;15.70;99.90;;;;;;5052118;28;20082;-61
2022/09/11 04:57:36;;;;;;;2.97;1.48;;;16.00;99.90;;;;;;5052578;28;20028;-61
2022/09/11 05:00:04;;;;;;;6.68;1.35;;;16.20;99.90;;;;;;5052146;28;20063;-61
2022/09/11 05:02:30;;;;;;;4.63;1.33;;;16.10;99.90;;;;;;5051889;28;20043;-61
2022/09/11 05:04:57;;;;;;;4.18;1.42;;;16.10;99.90;;;;;;5051420;28;20036;-61
2022/09/11 05:07:24;;;;;;;5.97;1.60;;;16.00;99.90;;;;;;5051853;28;20036;-61
2022/09/11 05:09:53;;;;;;;4.32;1.40;;;16.10;99.90;;;;;;5051903;28;20486;-62
2022/09/11 05:12:19;;;;;;;3.60;1.20;;;16.30;99.90;;;;;;5051733;28;20029;-61
2022/09/11 05:14:45;;;;;;;3.67;1.30;;;16.90;99.90;;;;;;5051894;28;20086;-61
2022/09/11 05:17:12;;;;;;;3.42;1.48;;;16.90;99.90;;;;;;5051884;28;20108;-61
2022/09/11 05:19:39;;;;;;;4.57;1.60;;;16.90;99.90;;;;;;5051787;28;20036;-61
2022/09/11 05:22:05;;;;;;;5.45;1.40;;;16.90;99.90;;;;;;5051157;28;20122;-61
2022/09/11 05:24:31;;;;;;;4.05;1.63;;;17.00;99.90;;;;;;5051829;28;20119;-61
2022/09/11 05:27:00;;;;;;;3.97;1.40;;;16.80;99.90;;;;;;5051645;28;20488;-61
2022/09/11 05:29:28;;;;;;;3.55;1.20;;;17.20;99.90;;;;;;5052101;28;20490;-61
2022/09/11 05:32:01;;;;;;;5.35;1.35;;;16.90;99.90;;;;;;5051628;28;20504;-61
2022/09/11 05:34:28;;;;;;;3.25;1.60;;;16.70;99.90;;;;;;5051617;28;20044;-61
2022/09/11 05:36:56;;;;;;;3.80;1.30;;;16.70;99.90;;;;;;5051267;28;20082;-61
2022/09/11 05:39:22;;;;;;;3.90;1.20;;;16.90;99.90;;;;;;5051579;28;20434;-61
2022/09/11 05:41:52;;;;;;;3.47;1.25;;;17.20;99.90;;;;;;5051567;28;20108;-61
2022/09/11 05:44:18;;;;;;;5.18;1.20;;;17.00;99.90;;;;;;5051603;28;20059;-61
2022/09/11 05:46:45;;;;;;;4.22;1.30;;;17.20;99.90;;;;;;5051703;28;20055;-61
2022/09/11 05:49:11;;;;;;;4.95;1.70;;;17.00;99.90;;;;;;5051369;28;20087;-61
2022/09/11 05:51:38;;;;;;;7.82;1.90;;;17.10;99.90;;;;;;5051179;28;20052;-61
2022/09/11 05:54:04;;;;;;;4.90;1.42;;;17.20;99.90;;;;;;5051672;28;20028;-61
2022/09/11 05:56:30;;;;;;;4.90;1.58;;;17.00;99.90;;;;;;5051881;28;20095;-61
2022/09/11 05:58:59;;;;;;;5.40;1.50;;;16.70;99.90;;;;;;5050202;28;20033;-61
2022/09/11 06:01:27;;;;;;;2.95;1.45;;;16.60;99.90;;;;;;5051394;28;20024;-61
2022/09/11 06:03:53;;;;;;;4.40;1.52;;;16.70;99.90;;;;;;5051415;28;20029;-61
2022/09/11 06:06:22;;;;;;;3.88;1.40;;;17.10;99.90;;;;;;5051357;28;20029;-61
2022/09/11 06:08:50;;;;;;;5.53;1.60;;;18.20;99.90;;;;;;5051454;28;20021;-61
2022/09/11 06:11:17;;;;;;;3.90;1.45;;;;;;;;;;5051239;28;20040;-61
2022/09/11 06:13:45;;;;;;;4.50;1.45;;;;;;;;;;5051193;28;20017;-61
2022/09/11 06:16:13;;;;;;;3.40;1.30;;;20.80;99.90;;;;;;5052209;28;20040;-61
2022/09/11 06:18:39;;;;;;;4.20;1.48;;;21.20;99.90;;;;;;5055134;28;20021;-61
2022/09/11 06:21:06;;;;;;;4.43;1.80;;;21.80;99.90;;;;;;5054506;28;20055;-61
2022/09/11 06:23:33;;;;;;;4.40;1.60;;;;;;;;;;5055015;28;20017;-61
2022/09/11 06:26:04;;;;;;;2.97;1.38;;;22.10;99.90;;;;;;5053997;28;20604;-61
2022/09/11 06:28:30;;;;;;;2.75;1.20;;;;;;;;;;5054979;28;20028;-61
2022/09/11 06:30:57;;;;;;;4.20;1.45;;;;;;;;;;5054725;28;20025;-61
2022/09/11 06:33:23;;;;;;;3.50;1.50;;;;;;;;;;5054378;28;20044;-60
2022/09/11 06:35:56;;;;;;;3.03;1.48;;;;;;;;;;5054726;28;20052;-61
2022/09/11 06:38:22;;;;;;;3.13;1.50;;;24.00;99.90;;;;;;5054544;28;20530;-61
2022/09/11 06:40:49;;;;;;;2.20;1.20;;;;;;;;;;5054425;28;20037;-61
2022/09/11 06:43:15;;;;;;;5.95;1.30;;;;;;;;;;5054591;28;20382;-61
2022/09/11 06:45:41;;;;;;;3.65;1.52;;;;;;;;;;5054596;28;20036;-61
2022/09/11 06:48:07;;;;;;;2.60;1.40;;;25.40;99.90;;;;;;5054053;28;20363;-61
2022/09/11 06:50:39;;;;;;;3.17;1.40;;;;;;;;;;5054391;28;20031;-61
2022/09/11 06:53:05;;;;;;;2.75;1.38;;;;;;;;;;5054779;28;20485;-61
2022/09/11 06:55:32;;;;;;;3.72;1.40;;;;;;;;;;5054426;28;20504;-61
2022/09/11 06:57:58;;;;;;;4.95;1.25;;;25.10;99.90;;;;;;5054309;28;20033;-61
2022/09/11 07:00:24;;;;;;;4.32;1.20;;;25.80;99.90;;;;;;5054082;28;20040;-61
2022/09/11 07:02:52;;;;;;;4.45;1.50;;;26.80;99.90;;;;;;5054257;28;20040;-61
2022/09/11 07:05:18;;;;;;;4.13;1.50;;;26.50;99.90;;;;;;5036325;28;20048;-61
2022/09/11 07:07:45;;;;;;;4.95;1.55;;;27.10;99.90;;;;;;5054141;28;20374;-61
2022/09/11 07:10:10;;;;;;;3.78;1.52;;;27.40;99.90;;;;;;5054113;28;20085;-61
2022/09/11 07:12:40;;;;;;;3.38;1.20;;;28.50;99.90;;;;;;5054467;28;20392;-61
2022/09/11 07:15:07;;;;;;;4.65;1.40;;;28.90;99.90;;;;;;5053957;28;20028;-61
2022/09/11 07:17:33;;;;;;;3.72;1.40;;;28.90;99.90;;;;;;5053368;28;20021;-61
2022/09/11 07:19:59;;;;;;;4.88;1.30;;;27.70;99.90;;;;;;5053847;28;20037;-61
2022/09/11 07:22:25;;;;;;;2.83;1.30;;;28.60;99.90;;;;;;5052796;28;20112;-60
2022/09/11 07:24:53;;;;;;;3.78;1.30;;;28.20;99.90;;;;;;5053850;28;20555;-61
2022/09/11 07:27:20;;;;;;;2.42;1.13;;;29.10;99.90;;;;;;5053423;28;20109;-61
2022/09/11 07:29:46;;;;;;;5.75;1.63;;;27.40;99.90;;;;;;5053123;28;20107;-61
2022/09/11 07:32:11;;;;;;;3.88;1.20;;;29.00;99.90;;;;;;5053172;28;20068;-60
2022/09/11 07:34:37;;;;;;;2.78;1.27;;;27.70;99.90;;;;;;5053629;28;20094;-61
2022/09/11 07:37:03;;;;;;;3.63;1.40;;;29.50;99.90;;;;;;5054041;28;20021;-61
2022/09/11 07:39:28;;;;;;;3.17;1.20;;;29.20;99.90;;;;;;5053285;28;20033;-61
2022/09/11 07:41:54;;;;;;;2.53;1.17;;;27.70;99.90;;;;;;5053404;28;20075;-61
2022/09/11 07:44:21;;;;;;;2.60;1.10;;;28.80;99.90;;;;;;5053330;28;20511;-60
2022/09/11 07:46:47;;;;;;;3.80;1.20;;;30.00;99.90;;;;;;5053297;28;20509;-61
2022/09/11 07:49:14;;;;;;;3.05;1.20;;;32.10;99.80;;;;;;5053472;28;20116;-60
2022/09/11 07:51:40;;;;;;;2.47;1.23;;;30.20;99.90;;;;;;5053236;28;20079;-61
2022/09/11 07:54:06;;;;;;;2.78;1.20;;;31.00;99.90;;;;;;5052170;28;20031;-61
2022/09/11 07:56:33;;;;;;;4.07;1.20;;;31.50;99.90;;;;;;5053487;28;20052;-61
2022/09/11 07:59:00;;;;;;;2.70;1.10;;;29.90;99.90;;;;;;5053228;28;20052;-61
2022/09/11 08:01:28;;;;;;;3.28;1.38;;;30.70;99.90;;;;;;5053131;28;20028;-61
2022/09/11 08:03:57;;;;;;;2.80;1.30;;;;;;;;;;5051900;28;20029;-61
2022/09/11 08:06:24;;;;;;;2.67;1.30;;;30.70;99.90;;;;;;5053105;28;20053;-61
2022/09/11 08:08:55;;;;;;;3.38;1.50;;;;;;;;;;5052923;28;20025;-61
2022/09/11 08:11:22;;;;;;;1.95;1.20;;;;;;;;;;5053136;28;20029;-60
2022/09/11 08:13:52;;;;;;;3.88;1.13;;;;;;;;;;5053179;28;20021;-61
2022/09/11 08:16:18;;;;;;;3.70;1.10;;;;;;;;;;5052358;28;20025;-60
2022/09/11 08:18:45;;;;;;;2.55;1.15;;;;;;;;;;5052905;28;20036;-60
2022/09/11 08:21:12;;;;;;;3.17;1.10;;;;;;;;;;5052945;28;20459;-60
2022/09/11 08:23:41;;;;;;;2.25;1.10;;;;;;;;;;5052835;28;20028;-61
2022/09/11 08:26:07;;;;;;;4.05;1.02;;;;;;;;;;5052686;28;20100;-62
2022/09/11 08:28:34;;;;;;;2.90;1.20;;;;;;;;;;5052703;28;20091;-61
2022/09/11 08:31:00;;;;;;;3.92;1.20;;;;;;;;;;5052225;28;20029;-61
2022/09/11 08:33:27;;;;;;;3.03;1.17;;;;;;;;;;5053178;28;20021;-60
2022/09/11 08:35:53;;;;;;;2.40;1.13;;;;;;;;;;5052731;28;20139;-61
2022/09/11 08:38:19;;;;;;;3.33;1.08;;;;;;;;;;5052498;28;20025;-61
2022/09/11 08:40:46;;;;;;;2.70;1.10;;;;;;;;;;5052820;28;20025;-61
2022/09/11 08:43:22;;;;;;;2.67;1.30;;;;;;;;;;5052304;28;20482;-61
2022/09/11 08:45:50;;;;;;;3.20;1.30;;;;;;;;;;5051260;28;20036;-61
2022/09/11 08:48:17;;;;;;;2.45;1.10;;;;;;;;;;5052462;28;20032;-61
2022/09/11 08:50:43;;;;;;;2.63;1.20;;;;;;;;;;5052421;28;20077;-61
2022/09/11 08:53:14;;;;;;;3.00;1.20;;;;;;;;;;5052290;28;20100;-61
2022/09/11 08:55:59;;;;;;;3.83;1.02;;;;;;;;;;5052334;28;20025;-61
2022/09/11 08:58:43;;;;;;;2.35;1.02;;;;;;;;;;5051850;28;20028;-61
2022/09/11 09:01:09;;;;;;;3.45;1.05;;;;;;;;;;5052182;28;20087;-61
2022/09/11 09:03:38;;;;;;;2.80;1.00;;;;;;;;;;5052076;28;20021;-61
2022/09/11 09:06:07;;;;;;;2.92;1.05;;;;;;;;;;5052731;28;20116;-61
2022/09/11 09:08:48;;;;;;;3.83;1.23;;;;;;;;;;5052177;28;20048;-61
2022/09/11 09:11:19;;;;;;;1.40;0.80;;;;;;;;;;5050773;28;20059;-62
2022/09/11 09:13:48;;;;;;;4.63;1.20;;;;;;;;;;5051639;28;20067;-61
2022/09/11 09:16:21;;;;;;;2.55;1.20;;;;;;;;;;5052029;28;20029;-62
2022/09/11 09:18:50;;;;;;;2.85;1.13;;;;;;;;;;5051866;28;20041;-61
2022/09/11 09:21:23;;;;;;;1.70;1.05;;;;;;;;;;5051892;28;20057;-61
2022/09/11 09:23:54;;;;;;;2.00;1.00;;;;;;;;;;5051984;28;20090;-61
2022/09/11 09:26:20;;;;;;;1.90;1.10;;;;;;;;;;5051906;28;20396;-62
2022/09/11 09:28:49;;;;;;;2.17;1.00;;;;;;;;;;5051574;28;20366;-62
2022/09/11 09:31:20;;;;;;;2.70;0.98;;;;;;;;;;5052287;28;20029;-61
2022/09/11 09:33:56;;;;;;;4.18;1.27;;;32.50;98.00;;;;;;5051870;28;20166;-61
2022/09/11 09:36:48;;;;;;;4.93;1.10;;;31.90;97.50;;;;;;5051896;28;20104;-61
2022/09/11 09:39:16;;;;;;;2.67;1.20;;;31.60;97.40;;;;;;5051565;28;20060;-61
2022/09/11 09:42:04;;;;;;;3.53;1.25;;;31.80;97.20;;;;;;5051674;28;20021;-61
2022/09/11 09:45:00;;;;;;;1.65;0.98;;;31.50;97.20;;;;;;5051811;28;20020;-61
2022/09/11 09:47:26;;;;;;;3.33;1.10;;;32.10;97.20;;;;;;5051849;28;20017;-61
2022/09/11 09:49:52;;;;;;;1.27;0.90;;;33.80;96.40;;;;;;5051739;28;20482;-62
2022/09/11 09:52:23;;;;;;;2.15;1.10;;;32.30;97.20;;;;;;5052823;28;20021;-62
2022/09/11 09:55:00;;;;;;;1.63;1.00;;;32.10;96.90;;;;;;5055769;28;20033;-62
2022/09/11 09:57:33;;;;;;;5.25;1.23;;;32.20;97.30;;;;;;5055696;28;20143;-61
2022/09/11 10:00:13;;;;;;;2.72;1.02;;;32.60;96.80;;;;;;5055440;28;20025;-62
2022/09/11 10:02:42;;;;;;;3.60;1.13;;;33.60;96.40;;;;;;5055553;28;20033;-62
2022/09/11 10:05:23;;;;;;;4.30;1.10;;;32.70;97.00;;;;;;5055584;28;20504;-61
2022/09/11 10:07:55;;;;;;;2.65;1.13;;;32.10;96.70;;;;;;5055834;28;20111;-62
2022/09/11 10:10:31;;;;;;;2.45;1.05;;;32.50;97.40;;;;;;5055328;28;20083;-62
2022/09/11 10:13:03;;;;;;;2.20;1.10;;;33.90;96.50;;;;;;5055043;28;20025;-62
2022/09/11 10:15:29;;;;;;;1.92;1.10;;;33.00;97.00;;;;;;5055276;28;20017;-62
2022/09/11 10:18:29;;;;;;;2.08;1.20;;;33.30;96.40;;;;;;5055376;28;20032;-61
2022/09/11 10:21:10;;;;;;;3.13;1.23;;;33.00;96.60;;;;;;5055338;28;20497;-61
2022/09/11 10:23:57;;;;;;;2.22;1.05;;;32.10;97.40;;;;;;5055646;28;20033;-61
2022/09/11 10:26:44;;;;;;;1.80;1.05;;;31.30;97.60;;;;;;5054646;28;20033;-61
2022/09/11 10:29:29;;;;;;;1.88;1.00;;;31.30;98.00;;;;;;5055078;28;20051;-61
2022/09/11 10:32:04;;;;;;;1.88;0.90;;;30.90;98.90;;;;;;5055157;28;20033;-61
2022/09/11 10:34:37;;;;;;;2.30;0.90;;;31.80;97.90;;;;;;5055207;28;20032;-61
2022/09/11 10:37:22;;;;;;;3.30;1.10;;;31.70;98.10;;;;;;5054944;28;20029;-61
2022/09/11 10:39:49;;;;;;;4.28;1.10;;;31.50;98.90;;;;;;5054066;28;20044;-61
2022/09/11 10:42:26;;;;;;;2.83;0.95;;;31.40;98.80;;;;;;5054952;28;20029;-61
2022/09/11 10:44:56;;;;;;;1.85;0.93;;;31.40;99.40;;;;;;5054875;28;20097;-61
2022/09/11 10:47:29;;;;;;;2.25;1.20;;;31.10;98.50;;;;;;5055243;28;20013;-61
2022/09/11 10:50:19;;;;;;;5.95;2.50;;;32.20;97.80;;;;;;5054731;28;20094;-61
2022/09/11 10:52:53;;;;;;;3.25;1.08;;;32.30;97.80;;;;;;5054669;28;20091;-61
2022/09/11 10:55:20;;;;;;;1.35;0.85;;;32.40;97.20;;;;;;5054192;28;20021;-61
2022/09/11 10:57:51;;;;;;;1.45;1.00;;;31.80;96.70;;;;;;5054639;28;20029;-61
2022/09/11 11:00:19;;;;;;;2.08;0.88;;;31.50;98.20;;;;;;5054366;28;20513;-61
2022/09/11 11:02:55;;;;;;;2.38;1.00;;;31.50;97.70;;;;;;5052988;28;20117;-61
2022/09/11 11:05:28;;;;;;;2.55;1.00;;;30.90;97.60;;;;;;5054463;28;20029;-61
2022/09/11 11:08:10;;;;;;;2.85;0.90;;;31.20;97.20;;;;;;5054464;28;20045;-61
2022/09/11 11:10:55;;;;;;;1.92;1.05;;;31.90;97.30;;;;;;5054386;28;20029;-62
2022/09/11 11:13:36;;;;;;;2.28;1.05;;;31.60;97.10;;;;;;5054523;28;20032;-61
2022/09/11 11:16:30;;;;;;;1.92;0.90;;;31.20;96.90;;;;;;5054262;28;20079;-62
2022/09/11 11:19:34;;;;;;;1.05;0.80;;;31.00;97.80;;;;;;5031657;28;20403;-62
2022/09/11 11:22:21;;;;;;;2.65;1.13;;;31.80;96.70;;;;;;4992454;28;20042;-61
2022/09/11 11:25:20;;;;;;;1.88;0.82;;;31.40;96.80;;;;;;4991934;28;20030;-61
2022/09/11 11:28:07;;;;;;;3.63;1.63;;;31.40;97.00;;;;;;4992447;28;20438;-61
2022/09/11 11:30:40;;;;;;;1.17;0.80;;;31.30;97.10;;;;;;4992465;28;20030;-61
2022/09/11 11:33:30;;;;;;;1.63;0.88;;;31.40;96.80;;;;;;4992424;28;20417;-62
2022/09/11 11:36:11;;;;;;;3.33;0.90;;;31.60;97.60;;;;;;4992486;28;20117;-61
2022/09/11 11:38:48;;;;;;;1.50;0.80;;;31.90;97.00;;;;;;4991818;28;20507;-61
2022/09/11 11:41:22;;;;;;;4.13;0.80;;;31.50;96.80;;;;;;4992166;28;20038;-61
2022/09/11 11:43:51;;;;;;;3.40;0.90;;;30.90;96.80;;;;;;4992229;28;20039;-62
2022/09/11 11:46:37;;;;;;;1.10;0.70;;;31.20;97.90;;;;;;4992659;28;20018;-62
2022/09/11 11:49:21;;;;;;;2.45;0.80;;;31.30;96.70;;;;;;4992147;28;20030;-62
2022/09/11 11:51:59;;;;;;;1.00;0.60;;;31.60;97.10;;;;;;4992108;28;20039;-62
2022/09/11 11:54:31;;;;;;;2.03;1.00;;;31.70;96.10;;;;;;4991701;28;20023;-61
2022/09/11 11:57:17;;;;;;;1.75;0.80;;;31.60;96.60;;;;;;5008739;28;20033;-62
2022/09/11 11:59:49;;;;;;;1.33;0.70;;;31.30;97.30;;;;;;5053243;28;20636;-62
2022/09/11 12:02:49;;;;;;;2.65;0.77;;;31.10;97.60;;;;;;5053465;28;20115;-62
2022/09/11 12:05:29;;;;;;;2.17;1.42;;;31.50;97.70;;;;;;5053320;28;20035;-62
2022/09/11 12:07:55;;;;;;;1.58;0.70;;;31.10;98.10;;;;;;5052796;28;20029;-62
2022/09/11 12:10:29;;;;;;;2.55;0.80;;;31.20;98.10;;;;;;5053146;28;20028;-61
2022/09/11 12:13:12;;;;;;;2.63;2.03;;;30.20;98.80;;;;;;5053100;28;20032;-62
2022/09/11 12:15:38;;;;;;;2.03;0.60;;;30.90;97.30;;;;;;5052957;28;20124;-61
2022/09/11 12:18:22;;;;;;;2.13;0.70;;;31.40;97.20;;;;;;5053012;28;20070;-62
2022/09/11 12:20:48;;;;;;;1.48;0.80;;;31.30;96.70;;;;;;5052751;28;20095;-62
2022/09/11 12:23:29;;;;;;;1.02;0.70;;;31.00;97.50;;;;;;5052640;28;20493;-61
2022/09/11 12:26:18;;;;;;;2.50;0.90;;;31.50;96.90;;;;;;5052837;28;20036;-61
2022/09/11 12:28:44;;;;;;;1.20;0.70;;;31.50;96.90;;;;;;5053177;28;20493;-61
2022/09/11 12:31:12;;;;;;;1.15;0.70;;;31.50;97.10;;;;;;5052782;28;20052;-61
2022/09/11 12:33:46;;;;;;;2.63;1.10;;;31.50;97.40;;;;;;5052695;28;20025;-62
2022/09/11 12:36:11;;;;;;;;;;;31.20;97.70;;;;;;5052785;28;20545;-62
2022/09/11 12:38:45;;;;;;;1.88;0.90;;;31.90;97.00;;;;;;5052623;28;20015;-61
2022/09/11 12:41:34;;;;;;;2.13;0.90;;;32.20;96.60;;;;;;5052396;28;20043;-62
2022/09/11 12:44:02;;;;;;;1.88;0.80;;;31.50;96.70;;;;;;5049745;28;20091;-62
2022/09/11 12:46:28;;;;;;;1.85;0.73;;;31.40;97.60;;;;;;5053089;28;20025;-62
2022/09/11 12:49:15;;;;;;;1.95;0.80;;;31.60;97.60;;;;;;5052407;28;20040;-62
2022/09/11 12:51:59;;;;;;;1.65;1.00;;;31.60;97.60;;;;;;5051792;28;20029;-62
2022/09/11 12:54:32;;;;;;;1.75;0.80;;;31.60;97.30;;;;;;5052599;28;20040;-62
2022/09/11 12:57:03;;;;;;;1.98;0.90;;;31.30;97.80;;;;;;5052403;28;20102;-62
2022/09/11 12:59:30;;;;;;;1.33;0.70;;;31.30;98.20;;;;;;5052633;28;20037;-61
2022/09/11 13:01:56;;;;;;;1.73;0.80;;;32.00;98.20;;;;;;5052359;28;20056;-62
2022/09/11 13:04:26;;;;;;;2.90;1.05;;;32.20;97.50;;;;;;5052085;28;20056;-62
2022/09/11 13:07:06;;;;;;;2.35;0.80;;;31.30;98.10;;;;;;5051814;28;20036;-62
2022/09/11 13:09:39;;;;;;;2.70;1.10;;;31.90;98.70;;;;;;5052246;28;20108;-62
2022/09/11 13:12:22;;;;;;;;;;;31.60;98.10;;;;;;5053087;28;20051;-62
2022/09/11 13:14:49;;;;;;;1.20;0.68;;;32.00;98.40;;;;;;5051935;28;19909;-62
2022/09/11 13:17:36;;;;;;;2.28;0.80;;;;;;;;;;5052155;28;20102;-62
2022/09/11 13:20:06;;;;;;;1.02;0.90;;;;;;;;;;5051499;28;20094;-62
2022/09/11 13:22:33;;;;;;;1.73;0.80;;;;;;;;;;5052348;28;20041;-62
2022/09/11 13:25:07;;;;;;;1.80;0.88;;;;;;;;;;5052112;28;20055;-62
2022/09/11 13:27:36;;;;;;;1.92;0.90;;;;;;;;;;5051216;28;20028;-62
2022/09/11 13:30:03;;;;;;;2.20;0.88;;;;;;;;;;5051976;28;20036;-62
2022/09/11 13:32:30;;;;;;;1.50;0.90;;;31.30;77.40;;;;;;5052052;28;20502;-62
2022/09/11 13:35:00;;;;;;;0.80;0.70;;;31.50;78.20;;;;;;5051385;28;20029;-62
2022/09/11 13:37:38;;;;;;;1.80;0.98;;;31.50;77.80;;;;;;5052007;28;20021;-62